Time;durP1;ratioP1;P1;durP2;ratioP2;P2;SDS_P1;SDS_P2;PMS_P1;PMS_P2;Temp;Humidity;BMP_temperature;BMP_pressure;BME280_temperature;BME280_humidity;BME280_pressure;Samples;Min_cycle;Max_cycle;Signal;HPM_P1;HPM_P2
2023/08/04 00:00:24;;;;;;;;;;;16.20;99.90;;;;;;5114286;28;19936;-69
2023/08/04 00:02:50;;;;;;;;;;;16.10;99.90;;;;;;5095735;28;19924;-69
2023/08/04 00:05:17;;;;;;;;;;;16.10;99.90;;;;;;5114087;28;20306;-69
2023/08/04 00:07:44;;;;;;;;;;;16.10;99.90;;;;;;5095869;28;19977;-69
2023/08/04 00:10:11;;;;;;;;;;;16.10;99.90;;;;;;5095608;28;19924;-69
2023/08/04 00:12:39;;;;;;;;;;;16.00;99.90;;;;;;5112373;28;19930;-69
2023/08/04 00:15:07;;;;;;;;;;;16.00;99.90;;;;;;5114164;28;19924;-69
2023/08/04 00:17:36;;;;;;;;;;;16.00;99.90;;;;;;5095115;28;19924;-69
2023/08/04 00:20:03;;;;;;;;;;;15.90;99.90;;;;;;5095609;28;19938;-69
2023/08/04 00:22:29;;;;;;;;;;;15.90;99.90;;;;;;5095943;28;19928;-69
2023/08/04 00:24:56;;;;;;;;;;;15.90;99.90;;;;;;5113291;28;20360;-69
2023/08/04 00:27:23;;;;;;;;;;;15.90;99.90;;;;;;5095608;28;19924;-69
2023/08/04 00:29:51;;;;;;;;;;;15.90;99.90;;;;;;5095498;28;19955;-69
2023/08/04 00:32:18;;;;;;;;;;;15.90;99.90;;;;;;5113175;28;20398;-69
2023/08/04 00:34:44;;;;;;;;;;;15.90;99.90;;;;;;5113559;28;20337;-69
2023/08/04 00:37:11;;;;;;;;;;;15.80;99.90;;;;;;5113773;28;19923;-69
2023/08/04 00:39:38;;;;;;;;;;;15.80;99.90;;;;;;5094896;28;19930;-69
2023/08/04 00:42:05;;;;;;;;;;;15.80;99.90;;;;;;5113524;28;19930;-69
2023/08/04 00:44:32;;;;;;;;;;;15.70;99.90;;;;;;5094877;28;19932;-70
2023/08/04 00:47:00;;;;;;;;;;;15.70;99.90;;;;;;5113443;28;20379;-69
2023/08/04 00:49:27;;;;;;;;;;;15.70;99.90;;;;;;5095253;28;19976;-69
2023/08/04 00:51:54;;;;;;;;;;;15.70;99.90;;;;;;5094159;28;19947;-69
2023/08/04 00:54:22;;;;;;;;;;;15.70;99.90;;;;;;5113240;28;19947;-69
2023/08/04 00:56:49;;;;;;;;;;;15.60;99.90;;;;;;5095326;28;19935;-69
2023/08/04 00:59:16;;;;;;;;;;;15.70;99.90;;;;;;5092202;28;19973;-69
2023/08/04 01:01:42;;;;;;;;;;;15.60;99.90;;;;;;5095208;28;19924;-69
2023/08/04 01:04:11;;;;;;;;;;;15.60;99.90;;;;;;5093059;28;19924;-68
2023/08/04 01:06:40;;;;;;;;;;;15.60;99.90;;;;;;5112469;28;20283;-68
2023/08/04 01:09:10;;;;;;;;;;;15.60;99.90;;;;;;5094710;28;19930;-67
2023/08/04 01:11:40;;;;;;;;;;;15.60;99.90;;;;;;5112868;28;19924;-68
2023/08/04 01:14:07;;;;;;;;;;;15.60;99.90;;;;;;5094117;28;19967;-67
2023/08/04 01:16:35;;;;;;;;;;;15.70;99.90;;;;;;5095079;28;19974;-68
2023/08/04 01:19:02;;;;;;;;;;;15.70;99.90;;;;;;5112671;28;20348;-68
2023/08/04 01:21:39;;;;;;;;;;;15.70;99.90;;;;;;5112406;28;19924;-68
2023/08/04 01:24:06;;;;;;;;;;;15.70;99.90;;;;;;5093134;28;19927;-68
2023/08/04 01:26:34;;;;;;;;;;;15.70;99.90;;;;;;5093818;28;19939;-68
2023/08/04 01:29:01;;;;;;;;;;;15.70;99.90;;;;;;5112690;28;20010;-68
2023/08/04 01:31:28;;;;;;;;;;;15.70;99.90;;;;;;5112765;28;19924;-68
2023/08/04 01:33:55;;;;;;;;;;;15.70;99.90;;;;;;5111994;28;19924;-68
2023/08/04 01:36:22;;;;;;;;;;;15.70;99.90;;;;;;5112611;28;19931;-68
2023/08/04 01:38:50;;;;;;;;;;;15.70;99.90;;;;;;5112424;28;20402;-68
2023/08/04 01:41:16;;;;;;;;;;;15.70;99.90;;;;;;5093371;28;20421;-68
2023/08/04 01:43:43;;;;;;;;;;;15.70;99.90;;;;;;5094270;28;19927;-69
2023/08/04 01:46:10;;;;;;;;;;;15.70;99.90;;;;;;5093865;28;19938;-69
2023/08/04 01:48:37;;;;;;;;;;;15.70;99.90;;;;;;5111525;28;19923;-69
2023/08/04 01:51:03;;;;;;;;;;;15.70;99.90;;;;;;5094242;28;19932;-70
2023/08/04 01:53:30;;;;;;;;;;;15.80;99.90;;;;;;5094646;28;19973;-69
2023/08/04 01:55:58;;;;;;;;;;;15.80;99.90;;;;;;5111732;28;19939;-69
2023/08/04 01:58:25;;;;;;;;;;;15.70;99.90;;;;;;5094469;28;19924;-70
2023/08/04 02:00:51;;;;;;;;;;;15.70;99.90;;;;;;5112053;28;20020;-69
2023/08/04 02:03:18;;;;;;;;;;;15.70;99.90;;;;;;5111585;28;20382;-68
2023/08/04 02:05:45;;;;;;;;;;;15.70;99.90;;;;;;5112017;28;19938;-68
2023/08/04 02:08:12;;;;;;;;;;;15.70;99.90;;;;;;5094207;28;19924;-69
2023/08/04 02:10:39;;;;;;;;;;;15.60;99.90;;;;;;5093515;28;19927;-68
2023/08/04 02:13:07;;;;;;;;;;;15.60;99.90;;;;;;5112279;28;20019;-68
2023/08/04 02:15:34;;;;;;;;;;;15.60;99.90;;;;;;5112118;28;19932;-69
2023/08/04 02:18:00;;;;;;;;;;;15.60;99.90;;;;;;5111680;28;19928;-69
2023/08/04 02:20:27;;;;;;;;;;;15.60;99.90;;;;;;5111862;28;19932;-69
2023/08/04 02:22:54;;;;;;;;;;;15.60;99.90;;;;;;5111542;28;19932;-69
2023/08/04 02:25:20;;;;;;;;;;;15.70;99.90;;;;;;5111969;28;20612;-69
2023/08/04 02:27:47;;;;;;;;;;;15.70;99.90;;;;;;5094074;28;19924;-69
2023/08/04 02:30:15;;;;;;;;;;;15.70;99.90;;;;;;5111281;28;19936;-69
2023/08/04 02:32:42;;;;;;;;;;;15.60;99.90;;;;;;5093778;28;19931;-69
2023/08/04 02:35:09;;;;;;;;;;;15.70;99.90;;;;;;5093844;28;19977;-69
2023/08/04 02:37:36;;;;;;;;;;;15.70;99.90;;;;;;5093509;28;19923;-69
2023/08/04 02:40:03;;;;;;;;;;;15.70;99.90;;;;;;5111642;28;20431;-68
2023/08/04 02:42:29;;;;;;;;;;;15.70;99.90;;;;;;5111845;28;19937;-68
2023/08/04 02:44:56;;;;;;;;;;;15.70;99.90;;;;;;5109378;28;19935;-68
2023/08/04 02:47:24;;;;;;;;;;;15.60;99.90;;;;;;5094030;28;19924;-68
2023/08/04 02:49:51;;;;;;;;;;;15.60;99.90;;;;;;5091935;28;20380;-68
2023/08/04 02:52:18;;;;;;;;;;;15.60;99.90;;;;;;5111545;28;19931;-68
2023/08/04 02:54:44;;;;;;;;;;;15.60;99.90;;;;;;5111990;28;19924;-69
2023/08/04 02:57:11;;;;;;;;;;;15.60;99.90;;;;;;5093845;28;19927;-69
2023/08/04 02:59:38;;;;;;;;;;;15.50;99.90;;;;;;5096609;28;19924;-68
2023/08/04 03:02:05;;;;;;;;;;;15.50;99.90;;;;;;5097120;28;19938;-68
2023/08/04 03:04:33;;;;;;;;;;;15.50;99.90;;;;;;5097529;28;19932;-68
2023/08/04 03:06:59;;;;;;;;;;;15.40;99.90;;;;;;5096733;28;19931;-68
2023/08/04 03:09:26;;;;;;;;;;;15.40;99.90;;;;;;5115234;28;19923;-69
2023/08/04 03:11:53;;;;;;;;;;;15.40;99.90;;;;;;5097055;28;20752;-69
2023/08/04 03:14:19;;;;;;;;;;;15.30;99.90;;;;;;5096850;28;19923;-69
2023/08/04 03:16:46;;;;;;;;;;;15.30;99.90;;;;;;5115097;28;19982;-68
2023/08/04 03:19:13;;;;;;;;;;;15.20;99.90;;;;;;5114595;28;19947;-68
2023/08/04 03:21:41;;;;;;;;;;;15.20;99.90;;;;;;5115005;28;19977;-68
2023/08/04 03:24:08;;;;;;;;;;;15.10;99.90;;;;;;5115353;28;19993;-68
2023/08/04 03:26:34;;;;;;;;;;;15.10;99.90;;;;;;5096296;28;19931;-68
2023/08/04 03:29:01;;;;;;;;;;;15.00;99.90;;;;;;5096764;28;19939;-68
2023/08/04 03:31:28;;;;;;;;;;;15.00;99.90;;;;;;5096733;28;20363;-68
2023/08/04 03:33:54;;;;;;;;;;;14.90;99.90;;;;;;5096435;28;20353;-68
2023/08/04 03:36:21;;;;;;;;;;;14.90;99.90;;;;;;5115111;28;19928;-68
2023/08/04 03:38:49;;;;;;;;;;;14.80;99.90;;;;;;5114928;28;19930;-68
2023/08/04 03:41:16;;;;;;;;;;;14.80;99.90;;;;;;5095202;28;20013;-68
2023/08/04 03:43:43;;;;;;;;;;;14.80;99.90;;;;;;5096149;28;19928;-69
2023/08/04 03:46:10;;;;;;;;;;;14.80;99.90;;;;;;5104885;28;19930;-68
2023/08/04 03:48:36;;;;;;;;;;;14.80;99.90;;;;;;5110230;28;19931;-68
2023/08/04 03:51:03;;;;;;;;;;;14.80;99.90;;;;;;5112923;28;19973;-69
2023/08/04 03:53:30;;;;;;;;;;;14.90;99.90;;;;;;5112493;28;19923;-68
2023/08/04 03:55:58;;;;;;;;;;;15.00;99.90;;;;;;5110572;28;19927;-69
2023/08/04 03:58:24;;;;;;;;;;;15.00;99.90;;;;;;5091403;28;19985;-69
2023/08/04 04:00:51;;;;;;;;;;;15.00;99.90;;;;;;5095019;28;19928;-70
2023/08/04 04:03:18;;;;;;;;;;;15.20;99.90;;;;;;5111080;28;19923;-69
2023/08/04 04:05:45;;;;;;;;;;;15.20;99.90;;;;;;5111825;28;19924;-70
2023/08/04 04:08:11;;;;;;;;;;;15.20;99.90;;;;;;5112255;28;19977;-70
2023/08/04 04:10:38;;;;;;;;;;;15.30;99.90;;;;;;5112386;28;19927;-70
2023/08/04 04:13:06;;;;;;;;;;;15.40;99.90;;;;;;5111072;28;19939;-69
2023/08/04 04:15:33;;;;;;;;;;;15.50;99.90;;;;;;5112689;28;20463;-69
2023/08/04 04:18:00;;;;;;;;;;;15.50;99.90;;;;;;5111445;28;19932;-69
2023/08/04 04:20:27;;;;;;;;;;;15.50;99.90;;;;;;5095042;28;19931;-69
2023/08/04 04:22:53;;;;;;;;;;;15.50;99.90;;;;;;5111194;28;19946;-69
2023/08/04 04:25:20;;;;;;;;;;;15.50;99.90;;;;;;5094869;28;19974;-69
2023/08/04 04:27:47;;;;;;;;;;;15.60;99.90;;;;;;5113415;27;19927;-69
2023/08/04 04:30:15;;;;;;;;;;;15.60;99.90;;;;;;5112907;28;19930;-69
2023/08/04 04:32:42;;;;;;;;;;;15.60;99.90;;;;;;5112337;28;19928;-69
2023/08/04 04:35:08;;;;;;;;;;;15.70;99.90;;;;;;5128657;27;20383;-69
2023/08/04 04:37:35;;;;;;;;;;;15.50;99.90;;;;;;5107285;28;19928;-69
2023/08/04 04:40:02;;;;;;;;;;;15.50;99.90;;;;;;5091968;28;19927;-69
2023/08/04 04:42:29;;;;;;;;;;;15.50;99.90;;;;;;5092221;28;20363;-68
2023/08/04 04:44:56;;;;;;;;;;;15.50;99.90;;;;;;5091446;28;20065;-68
2023/08/04 04:47:24;;;;;;;;;;;15.50;99.90;;;;;;5094585;28;19971;-69
2023/08/04 04:49:51;;;;;;;;;;;15.50;99.90;;;;;;5111619;28;20528;-69
2023/08/04 04:52:29;;;;;;;;;;;15.50;99.90;;;;;;5094360;28;19923;-69
2023/08/04 04:54:56;;;;;;;;;;;15.50;99.90;;;;;;5093754;28;20336;-70
2023/08/04 04:57:23;;;;;;;;;;;15.50;99.90;;;;;;5094435;28;19970;-70
2023/08/04 04:59:50;;;;;;;;;;;15.50;99.90;;;;;;5110790;28;20007;-68
2023/08/04 05:02:17;;;;;;;;;;;15.50;99.90;;;;;;5111808;28;19923;-69
2023/08/04 05:04:45;;;;;;;;;;;15.60;99.90;;;;;;5109189;28;20005;-68
2023/08/04 05:07:12;;;;;;;;;;;15.60;99.90;;;;;;5093596;28;19927;-69
2023/08/04 05:09:38;;;;;;;;;;;15.60;99.90;;;;;;5092195;28;20321;-69
2023/08/04 05:12:05;;;;;;;;;;;15.70;99.90;;;;;;5092438;28;19920;-69
2023/08/04 05:14:33;;;;;;;;;;;15.70;99.90;;;;;;5092258;28;19932;-69
2023/08/04 05:17:00;;;;;;;;;;;15.80;99.90;;;;;;5093944;28;19924;-69
2023/08/04 05:19:26;;;;;;;;;;;15.70;99.90;;;;;;5109886;28;20345;-69
2023/08/04 05:21:55;;;;;;;;;;;15.80;99.90;;;;;;5090612;28;19931;-69
2023/08/04 05:24:21;;;;;;;;;;;15.90;99.90;;;;;;5091034;28;20156;-69
2023/08/04 05:26:48;;;;;;;;;;;15.90;99.90;;;;;;5092017;28;19923;-70
2023/08/04 05:29:15;;;;;;;;;;;16.00;99.90;;;;;;5110326;28;19931;-70
2023/08/04 05:31:42;;;;;;;;;;;16.00;99.90;;;;;;5090099;28;19936;-69
2023/08/04 05:34:08;;;;;;;;;;;16.10;99.90;;;;;;5109622;28;20329;-68
2023/08/04 05:36:35;;;;;;;;;;;16.10;99.90;;;;;;5092669;28;20387;-68
2023/08/04 05:39:03;;;;;;;;;;;16.10;99.90;;;;;;5094105;28;19928;-69
2023/08/04 05:41:30;;;;;;;;;;;16.20;99.90;;;;;;5109372;28;19924;-69
2023/08/04 05:43:57;;;;;;;;;;;16.20;99.90;;;;;;5090269;28;19931;-69
2023/08/04 05:46:24;;;;;;;;;;;16.20;99.90;;;;;;5089131;28;19995;-68
2023/08/04 05:48:51;;;;;;;;;;;16.20;99.90;;;;;;5089757;28;19924;-68
2023/08/04 05:51:17;;;;;;;;;;;16.30;99.90;;;;;;5089786;28;19936;-69
2023/08/04 05:53:44;;;;;;;;;;;16.30;99.90;;;;;;5090546;28;20368;-68
2023/08/04 05:56:12;;;;;;;;;;;16.30;99.90;;;;;;5089544;28;19973;-68
2023/08/04 05:58:39;;;;;;;;;;;16.30;99.90;;;;;;5091399;28;20353;-68
2023/08/04 06:01:06;;;;;;;;;;;16.40;99.90;;;;;;5087144;28;21449;-68
2023/08/04 06:03:33;;;;;;;;;;;16.50;99.90;;;;;;5090008;28;20015;-69
2023/08/04 06:05:59;;;;;;;;;;;16.50;99.90;;;;;;5089340;28;19985;-69
2023/08/04 06:08:26;;;;;;;;;;;16.50;99.90;;;;;;5089100;28;19924;-69
2023/08/04 06:10:53;;;;;;;;;;;15.90;99.90;;;;;;5089252;28;19931;-70
2023/08/04 06:13:21;;;;;;;;;;;16.70;99.90;;;;;;5090490;28;19939;-70
2023/08/04 06:15:48;;;;;;;;;;;16.80;99.90;;;;;;5088812;28;19924;-70
2023/08/04 06:18:15;;;;;;;;;;;16.80;99.90;;;;;;5088089;28;19936;-70
2023/08/04 06:20:41;;;;;;;;;;;16.80;99.90;;;;;;5089463;28;19924;-69
2023/08/04 06:23:07;;;;;;;;;;;16.80;99.90;;;;;;5086497;28;19928;-69
2023/08/04 06:25:34;;;;;;;;;;;16.90;99.90;;;;;;5089908;28;19924;-70
2023/08/04 06:28:00;;;;;;;;;;;17.00;99.90;;;;;;5089411;28;19953;-69
2023/08/04 06:30:29;;;;;;;;;;;17.10;99.90;;;;;;5085714;28;20433;-69
2023/08/04 06:32:56;;;;;;;;;;;17.10;99.90;;;;;;5090502;28;19963;-70
2023/08/04 06:35:22;;;;;;;;;;;17.20;99.90;;;;;;5095358;28;20022;-70
2023/08/04 06:37:49;;;;;;;;;;;17.30;99.90;;;;;;5093141;28;19924;-69
2023/08/04 06:40:17;;;;;;;;;;;17.40;99.90;;;;;;5095036;28;19924;-70
2023/08/04 06:42:43;;;;;;;;;;;17.50;99.90;;;;;;5100443;28;20015;-70
2023/08/04 06:45:12;;;;;;;;;;;17.60;99.90;;;;;;5095717;28;20302;-70
2023/08/04 06:47:40;;;;;;;;;;;17.60;99.90;;;;;;5096406;28;19953;-70
2023/08/04 06:50:07;;;;;;;;;;;17.80;99.90;;;;;;5115606;28;19924;-70
2023/08/04 06:52:34;;;;;;;;;;;17.50;99.90;;;;;;5096525;28;19924;-69
2023/08/04 06:55:01;;;;;;;;;;;18.10;99.90;;;;;;5114679;28;19932;-68
2023/08/04 06:57:27;;;;;;;;;;;18.10;99.90;;;;;;5113387;28;19931;-69
2023/08/04 06:59:54;;;;;;;;;;;18.20;99.90;;;;;;5114561;28;19988;-69
2023/08/04 07:02:21;;;;;;;;;;;18.30;99.90;;;;;;5113347;28;19924;-68
2023/08/04 07:04:49;;;;;;;;;;;18.30;99.90;;;;;;5112318;28;19927;-69
2023/08/04 07:07:15;;;;;;;;;;;18.30;99.90;;;;;;5095338;28;19931;-69
2023/08/04 07:09:42;;;;;;;;;;;18.30;99.90;;;;;;5095366;28;19931;-70
2023/08/04 07:12:09;;;;;;;;;;;18.40;99.90;;;;;;5096076;28;20286;-70
2023/08/04 07:14:36;;;;;;;;;;;18.40;99.90;;;;;;5095724;28;19927;-70
2023/08/04 07:17:02;;;;;;;;;;;18.40;99.90;;;;;;5096370;28;19931;-70
2023/08/04 07:19:29;;;;;;;;;;;18.40;99.90;;;;;;5112914;28;19968;-69
2023/08/04 07:21:57;;;;;;;;;;;18.50;99.90;;;;;;5114582;28;19981;-69
2023/08/04 07:24:24;;;;;;;;;;;18.40;99.90;;;;;;5113417;28;19924;-69
2023/08/04 07:26:51;;;;;;;;;;;18.40;99.90;;;;;;5113822;28;19924;-69
2023/08/04 07:29:17;;;;;;;;;;;18.50;99.90;;;;;;5113182;28;19924;-69
2023/08/04 07:31:44;;;;;;;;;;;18.70;99.90;;;;;;5114727;28;19927;-69
2023/08/04 07:34:11;;;;;;;;;;;18.80;99.90;;;;;;5094905;28;20441;-70
2023/08/04 07:36:38;;;;;;;;;;;19.00;99.90;;;;;;5114516;28;19927;-70
2023/08/04 07:39:06;;;;;;;;;;;19.10;99.90;;;;;;5112602;28;19930;-69
2023/08/04 07:41:32;;;;;;;;;;;19.30;99.90;;;;;;5113331;28;20413;-70
2023/08/04 07:43:59;;;;;;;;;;;19.40;99.90;;;;;;5094857;28;19954;-69
2023/08/04 07:46:26;;;;;;;;;;;19.60;99.90;;;;;;5111940;28;19924;-69
2023/08/04 07:48:53;;;;;;;;;;;19.70;99.90;;;;;;5095056;28;19984;-70
2023/08/04 07:51:21;;;;;;;;;;;19.70;99.90;;;;;;5094801;28;19927;-70
2023/08/04 07:53:48;;;;;;;;;;;19.70;99.90;;;;;;5094417;28;19931;-69
2023/08/04 07:56:16;;;;;;;;;;;19.90;99.90;;;;;;5093926;28;19924;-69
2023/08/04 07:58:43;;;;;;;;;;;19.80;99.90;;;;;;5095446;28;19931;-69
2023/08/04 08:01:10;;;;;;;;;;;19.70;99.90;;;;;;5113140;28;19928;-69
2023/08/04 08:03:37;;;;;;;;;;;19.40;99.90;;;;;;5113970;28;19928;-69
2023/08/04 08:06:03;;;;;;;;;;;19.20;99.90;;;;;;5111922;28;19930;-69
2023/08/04 08:08:31;;;;;;;;;;;19.00;99.90;;;;;;5113383;28;20391;-69
2023/08/04 08:10:57;;;;;;;;;;;18.60;99.90;;;;;;5095367;28;19924;-69
2023/08/04 08:13:25;;;;;;;;;;;18.30;99.90;;;;;;5095896;28;19924;-69
2023/08/04 08:15:52;;;;;;;;;;;18.00;99.90;;;;;;5092629;28;20406;-69
2023/08/04 08:18:19;;;;;;;;;;;17.90;99.90;;;;;;5095905;28;19973;-69
2023/08/04 08:20:46;;;;;;;;;;;17.90;99.90;;;;;;5113492;28;19930;-69
2023/08/04 08:23:13;;;;;;;;;;;18.10;99.90;;;;;;5124453;27;19931;-69
2023/08/04 08:25:41;;;;;;;;;;;18.30;99.90;;;;;;5113481;28;20018;-70
2023/08/04 08:28:08;;;;;;;;;;;18.60;99.90;;;;;;5095152;28;20026;-70
2023/08/04 08:30:36;;;;;;;;;;;18.90;99.90;;;;;;5113032;28;20304;-72
2023/08/04 08:33:02;;;;;;;;;;;19.30;99.90;;;;;;5094909;28;19939;-72
2023/08/04 08:35:29;;;;;;;;;;;19.40;99.90;;;;;;5093744;28;19924;-72
2023/08/04 08:37:56;;;;;;;;;;;19.60;99.90;;;;;;5112693;28;19933;-70
2023/08/04 08:40:25;;;;;;;;;;;19.70;99.90;;;;;;5094728;28;20511;-69
2023/08/04 08:42:52;;;;;;;;;;;19.50;99.90;;;;;;5093990;28;20452;-69
2023/08/04 08:45:19;;;;;;;;;;;19.20;99.90;;;;;;5113753;28;20359;-69
2023/08/04 08:47:47;;;;;;;;;;;19.00;99.90;;;;;;5093513;28;20442;-69
2023/08/04 08:50:16;;;;;;;;;;;18.80;99.90;;;;;;5094567;28;19932;-69
2023/08/04 08:52:45;;;;;;;;;;;18.70;99.90;;;;;;5129070;27;20002;-69
2023/08/04 08:55:12;;;;;;;;;;;18.40;99.90;;;;;;5094305;28;19930;-69
2023/08/04 08:57:39;;;;;;;;;;;18.40;99.90;;;;;;5094347;28;19931;-69
2023/08/04 09:00:06;;;;;;;;;;;18.40;99.90;;;;;;5112869;28;20375;-69
2023/08/04 09:02:33;;;;;;;;;;;18.60;99.90;;;;;;5112675;28;20383;-69
2023/08/04 09:05:04;;;;;;;;;;;19.10;99.90;;;;;;5092197;28;19924;-69
2023/08/04 09:07:30;;;;;;;;;;;19.90;99.90;;;;;;5076898;28;19932;-69
2023/08/04 09:09:57;;;;;;;;;;;20.50;99.90;;;;;;5092831;28;19931;-69
2023/08/04 09:12:25;;;;;;;;;;;21.00;99.90;;;;;;5112233;28;19924;-69
2023/08/04 09:14:53;;;;;;;;;;;21.20;99.90;;;;;;5113152;28;19924;-69
2023/08/04 09:17:29;;;;;;;;;;;21.10;99.90;;;;;;5094366;28;19946;-69
2023/08/04 09:19:56;;;;;;;;;;;20.90;99.90;;;;;;5093759;28;19920;-70
2023/08/04 09:22:24;;;;;;;;;;;20.80;99.90;;;;;;5112931;28;19938;-69
2023/08/04 09:24:54;;;;;;;;;;;20.90;99.90;;;;;;5092569;28;19924;-70
2023/08/04 09:27:28;;;;;;;;;;;20.80;99.90;;;;;;5093306;28;19938;-70
2023/08/04 09:29:59;;;;;;;;;;;20.80;99.90;;;;;;5111174;28;19923;-69
2023/08/04 09:32:26;;;;;;;;;;;20.60;99.90;;;;;;5092471;28;20995;-69
2023/08/04 09:35:00;;;;;;;;;;;20.30;99.90;;;;;;5093973;28;20302;-69
2023/08/04 09:37:31;;;;;;;;;;;19.80;99.90;;;;;;5111817;28;19923;-69
2023/08/04 09:40:01;;;;;;;;;;;19.60;99.90;;;;;;5119859;27;20375;-69
2023/08/04 09:42:28;;;;;;;;;;;19.60;99.90;;;;;;5093858;28;19923;-69
2023/08/04 09:44:54;;;;;;;;;;;19.40;99.90;;;;;;5112186;28;19927;-69
2023/08/04 09:47:22;;;;;;;;;;;19.30;99.90;;;;;;5111024;28;19923;-69
2023/08/04 09:49:49;;;;;;;;;;;19.60;99.90;;;;;;5111905;28;19928;-69
2023/08/04 09:52:19;;;;;;;;;;;19.70;99.90;;;;;;5111216;28;19924;-69
2023/08/04 09:54:47;;;;;;;;;;;20.00;99.90;;;;;;5093707;28;20433;-69
2023/08/04 09:57:14;;;;;;;;;;;20.40;99.90;;;;;;5113359;28;20261;-70
2023/08/04 09:59:41;;;;;;;;;;;20.70;99.90;;;;;;5095089;28;20002;-70
2023/08/04 10:02:09;;;;;;;;;;;21.20;99.90;;;;;;5112227;28;20368;-70
2023/08/04 10:04:36;;;;;;;;;;;21.80;99.90;;;;;;5113337;28;19924;-70
2023/08/04 10:07:03;;;;;;;;;;;22.10;99.90;;;;;;5113496;28;20336;-70
2023/08/04 10:09:31;;;;;;;;;;;22.70;99.90;;;;;;5111847;28;20266;-71
2023/08/04 10:11:59;;;;;;;;;;;23.30;99.90;;;;;;5113150;28;19953;-71
2023/08/04 10:14:26;;;;;;;;;;;23.60;99.90;;;;;;5094351;28;19969;-71
2023/08/04 10:16:54;;;;;;;;;;;23.50;99.90;;;;;;5094943;28;19932;-69
2023/08/04 10:19:23;;;;;;;;;;;24.10;99.90;;;;;;5094566;28;20375;-69
2023/08/04 10:21:50;;;;;;;;;;;24.60;99.90;;;;;;5112065;28;19963;-70
2023/08/04 10:24:19;;;;;;;;;;;25.20;99.90;;;;;;5094792;28;19977;-69
2023/08/04 10:26:47;;;;;;;;;;;25.60;99.90;;;;;;5094849;28;19924;-69
2023/08/04 10:29:15;;;;;;;;;;;26.40;99.90;;;;;;5112224;28;20003;-69
2023/08/04 10:31:46;;;;;;;;;;;27.00;99.90;;;;;;5112953;28;20362;-70
2023/08/04 10:34:16;;;;;;;;;;;27.50;99.90;;;;;;5113239;28;19928;-70
2023/08/04 10:37:00;;;;;;;;;;;27.30;99.90;;;;;;5094078;28;21026;-70
2023/08/04 10:39:28;;;;;;;;;;;27.10;99.90;;;;;;5112898;28;19970;-70
2023/08/04 10:41:55;;;;;;;;;;;27.60;99.90;;;;;;5112510;28;20428;-70
2023/08/04 10:44:26;;;;;;;;;;;27.00;99.40;;;;;;5093620;28;19971;-70
2023/08/04 10:46:59;;;;;;;;;;;26.10;99.80;;;;;;5094736;28;20027;-70
2023/08/04 10:49:25;;;;;;;;;;;25.50;99.90;;;;;;5112233;28;19930;-70
2023/08/04 10:51:52;;;;;;;;;;;25.40;99.90;;;;;;5094495;28;20376;-70
2023/08/04 10:54:19;;;;;;;;;;;25.60;99.90;;;;;;5112730;28;20299;-70
2023/08/04 10:56:47;;;;;;;;;;;25.90;99.90;;;;;;5112047;28;20295;-70
2023/08/04 10:59:13;;;;;;;;;;;26.20;99.90;;;;;;5094504;28;19931;-70
2023/08/04 11:01:42;;;;;;;;;;;25.80;99.80;;;;;;5094447;28;20391;-70
2023/08/04 11:04:08;;;;;;;;;;;25.40;99.90;;;;;;5111970;28;19924;-70
2023/08/04 11:06:36;;;;;;;;;;;25.30;99.90;;;;;;5094358;28;19924;-70
2023/08/04 11:09:03;;;;;;;;;;;25.10;99.90;;;;;;5112490;28;20375;-71
2023/08/04 11:11:30;;;;;;;;;;;25.20;99.90;;;;;;5111760;28;19931;-71
2023/08/04 11:13:57;;;;;;;;;;;25.60;99.90;;;;;;5094455;28;19923;-71
2023/08/04 11:16:24;;;;;;;;;;;26.30;99.80;;;;;;5094311;28;19931;-71
2023/08/04 11:18:53;;;;;;;;;;;26.60;98.10;;;;;;5093904;28;19931;-71
2023/08/04 11:21:20;;;;;;;;;;;27.40;98.60;;;;;;5096762;28;19931;-72
2023/08/04 11:23:46;;;;;;;;;;;27.50;97.70;;;;;;5115870;28;20272;-70
2023/08/04 11:26:15;;;;;;;;;;;27.10;98.40;;;;;;5115248;28;19932;-70
2023/08/04 11:28:42;;;;;;;;;;;26.90;97.80;;;;;;5115702;28;19939;-70
2023/08/04 11:31:09;;;;;;;;;;;26.40;98.40;;;;;;5115897;28;19923;-70
2023/08/04 11:33:36;;;;;;;;;;;26.40;98.90;;;;;;5115239;28;19932;-70
2023/08/04 11:36:04;;;;;;;;;;;26.20;98.40;;;;;;5097334;28;19934;-70
2023/08/04 11:38:31;;;;;;;;;;;26.30;99.80;;;;;;5115898;28;19946;-69
2023/08/04 11:40:59;;;;;;;;;;;26.20;98.10;;;;;;5097346;28;20294;-69
2023/08/04 11:43:26;;;;;;;;;;;26.00;98.20;;;;;;5115372;28;19924;-69
2023/08/04 11:45:55;;;;;;;;;;;26.20;99.40;;;;;;5114694;28;19967;-70
2023/08/04 11:48:22;;;;;;;;;;;26.40;97.80;;;;;;5113660;28;20303;-70
2023/08/04 11:50:49;;;;;;;;;;;26.50;98.80;;;;;;5097332;28;20277;-69
2023/08/04 11:53:17;;;;;;;;;;;26.70;97.80;;;;;;5114713;28;19923;-69
2023/08/04 11:55:57;;;;;;;;;;;26.90;97.50;;;;;;5115309;28;19928;-70
2023/08/04 11:58:33;;;;;;;;;;;26.70;98.20;;;;;;5115450;28;19934;-70
2023/08/04 12:01:00;;;;;;;;;;;26.50;97.50;;;;;;5096760;28;20432;-70
2023/08/04 12:03:41;;;;;;;;;;;26.30;98.40;;;;;;5115097;28;19924;-70
2023/08/04 12:06:12;;;;;;;;;;;26.10;97.30;;;;;;5115098;28;19924;-70
2023/08/04 12:08:40;;;;;;;;;;;26.40;97.90;;;;;;5096385;28;20268;-70
2023/08/04 12:11:07;;;;;;;;;;;26.90;97.30;;;;;;5115121;28;20287;-69
2023/08/04 12:13:34;;;;;;;;;;;27.10;97.10;;;;;;5097025;28;19928;-69
2023/08/04 12:16:01;;;;;;;;;;;27.30;97.10;;;;;;5096466;28;19923;-69
2023/08/04 12:18:28;;;;;;;;;;;27.10;97.70;;;;;;5112490;28;19968;-69
2023/08/04 12:20:56;;;;;;;;;;;26.80;97.30;;;;;;5096306;28;19928;-69
2023/08/04 12:23:23;;;;;;;;;;;26.60;97.80;;;;;;5094236;28;19924;-69
2023/08/04 12:25:51;;;;;;;;;;;26.50;97.50;;;;;;5096602;28;20519;-69
2023/08/04 12:28:17;;;;;;;;;;;26.20;96.50;;;;;;5096053;28;19957;-69
2023/08/04 12:30:44;;;;;;;;;;;25.80;97.50;;;;;;5096130;28;19928;-69
2023/08/04 12:33:11;;;;;;;;;;;25.90;98.80;;;;;;5096613;28;20315;-69
2023/08/04 12:35:38;;;;;;;;;;;25.90;98.80;;;;;;5095825;28;20837;-69
2023/08/04 12:38:04;;;;;;;;;;;25.80;98.50;;;;;;5114578;28;20345;-70
2023/08/04 12:40:31;;;;;;;;;;;25.80;98.80;;;;;;5096432;28;19998;-70
2023/08/04 12:42:59;;;;;;;;;;;26.10;99.00;;;;;;5113545;28;19924;-70
2023/08/04 12:45:26;;;;;;;;;;;26.50;97.50;;;;;;5095993;28;20399;-70
2023/08/04 12:47:53;;;;;;;;;;;26.90;97.20;;;;;;5114220;28;19931;-70
2023/08/04 12:50:20;;;;;;;;;;;27.20;97.10;;;;;;5113885;28;19924;-70
2023/08/04 12:52:46;;;;;;;;;;;27.00;97.00;;;;;;5114684;28;19924;-70
2023/08/04 12:55:13;;;;;;;;;;;26.60;97.40;;;;;;5114330;28;19980;-69
2023/08/04 12:57:40;;;;;;;;;;;26.30;97.00;;;;;;5113436;28;20340;-69
2023/08/04 13:00:09;;;;;;;;;;;26.30;97.50;;;;;;5114020;28;19930;-70
2023/08/04 13:02:35;;;;;;;;;;;26.30;96.80;;;;;;5095819;28;19924;-69
2023/08/04 13:05:03;;;;;;;;;;;26.50;96.70;;;;;;5095129;28;19924;-69
2023/08/04 13:07:29;;;;;;;;;;;26.40;98.00;;;;;;5113799;28;19993;-69
2023/08/04 13:09:56;;;;;;;;;;;26.30;97.60;;;;;;5113876;28;19924;-69
2023/08/04 13:12:23;;;;;;;;;;;26.20;98.20;;;;;;5113027;28;19931;-69
2023/08/04 13:14:49;;;;;;;;;;;26.40;98.60;;;;;;5095753;28;19924;-69
2023/08/04 13:17:18;;;;;;;;;;;26.50;98.40;;;;;;5095054;28;20284;-70
2023/08/04 13:19:45;;;;;;;;;;;26.50;98.10;;;;;;5095578;28;20040;-69
2023/08/04 13:22:12;;;;;;;;;;;26.60;96.90;;;;;;5113607;28;20421;-69
2023/08/04 13:24:39;;;;;;;;;;;26.10;98.10;;;;;;5093235;28;20285;-70
2023/08/04 13:27:08;;;;;;;;;;;25.70;97.90;;;;;;5113728;28;19924;-69
2023/08/04 13:29:35;;;;;;;;;;;25.10;98.10;;;;;;5113768;28;20006;-69
2023/08/04 13:32:03;;;;;;;;;;;24.40;99.40;;;;;;5094867;28;19966;-69
2023/08/04 13:34:31;;;;;;;;;;;23.70;99.90;;;;;;5094949;28;19923;-70
2023/08/04 13:36:57;;;;;;;;;;;23.30;99.90;;;;;;5095500;28;20367;-69
2023/08/04 13:39:24;;;;;;;;;;;23.10;99.90;;;;;;5087369;28;19973;-69
2023/08/04 13:41:51;;;;;;;;;;;22.80;99.90;;;;;;5108228;28;19947;-69
2023/08/04 13:44:18;;;;;;;;;;;22.70;99.90;;;;;;5091888;28;19932;-68
2023/08/04 13:46:44;;;;;;;;;;;22.60;99.90;;;;;;5093515;28;20271;-69
2023/08/04 13:49:11;;;;;;;;;;;22.50;99.90;;;;;;5094157;28;19940;-69
2023/08/04 13:51:39;;;;;;;;;;;22.30;99.90;;;;;;5093920;28;19984;-69
2023/08/04 13:54:06;;;;;;;;;;;22.20;99.90;;;;;;5112543;28;19928;-69
2023/08/04 13:56:33;;;;;;;;;;;22.10;99.90;;;;;;5112796;28;19931;-69
2023/08/04 13:59:00;;;;;;;;;;;22.00;99.90;;;;;;5112806;28;20287;-69
2023/08/04 14:01:28;;;;;;;;;;;21.70;99.90;;;;;;5112637;28;19986;-69
2023/08/04 14:03:55;;;;;;;;;;;21.70;99.90;;;;;;5112934;28;19928;-69
2023/08/04 14:06:22;;;;;;;;;;;21.80;99.90;;;;;;5094310;28;20310;-69
2023/08/04 14:08:50;;;;;;;;;;;21.80;99.90;;;;;;5092758;28;20292;-69
2023/08/04 14:11:17;;;;;;;;;;;21.90;99.90;;;;;;5112909;28;19931;-69
2023/08/04 14:13:45;;;;;;;;;;;22.00;99.90;;;;;;5112303;28;19923;-69
2023/08/04 14:16:13;;;;;;;;;;;21.90;99.90;;;;;;5094528;28;19979;-69